sensor_id;sensor_type;location;lat;lon;timestamp;P1;durP1;ratioP1;P2;durP2;ratioP2
13343;SDS011;6741;48.964;9.406;2023-09-08T00:01:39;6.80;;;6.13;;
13343;SDS011;6741;48.964;9.406;2023-09-08T00:04:06;6.95;;;6.05;;
13343;SDS011;6741;48.964;9.406;2023-09-08T00:06:34;6.15;;;5.43;;
13343;SDS011;6741;48.964;9.406;2023-09-08T00:09:02;6.13;;;5.57;;
13343;SDS011;6741;48.964;9.406;2023-09-08T00:11:29;6.77;;;6.10;;
13343;SDS011;6741;48.964;9.406;2023-09-08T00:13:56;7.47;;;6.10;;
13343;SDS011;6741;48.964;9.406;2023-09-08T00:16:23;6.57;;;5.97;;
13343;SDS011;6741;48.964;9.406;2023-09-08T00:18:50;6.60;;;6.00;;
13343;SDS011;6741;48.964;9.406;2023-09-08T00:21:16;7.07;;;6.37;;
13343;SDS011;6741;48.964;9.406;2023-09-08T00:23:44;7.93;;;6.17;;
13343;SDS011;6741;48.964;9.406;2023-09-08T00:26:11;6.70;;;6.10;;
13343;SDS011;6741;48.964;9.406;2023-09-08T00:28:38;6.90;;;6.30;;
13343;SDS011;6741;48.964;9.406;2023-09-08T00:31:05;7.60;;;5.93;;
13343;SDS011;6741;48.964;9.406;2023-09-08T00:33:31;7.00;;;6.30;;
13343;SDS011;6741;48.964;9.406;2023-09-08T00:35:58;7.13;;;6.43;;
13343;SDS011;6741;48.964;9.406;2023-09-08T00:38:25;7.20;;;6.20;;
13343;SDS011;6741;48.964;9.406;2023-09-08T00:40:54;7.80;;;6.27;;
13343;SDS011;6741;48.964;9.406;2023-09-08T00:43:21;7.20;;;6.50;;
13343;SDS011;6741;48.964;9.406;2023-09-08T00:45:48;9.33;;;7.03;;
13343;SDS011;6741;48.964;9.406;2023-09-08T00:48:14;9.70;;;5.70;;
13343;SDS011;6741;48.964;9.406;2023-09-08T00:50:42;6.83;;;6.13;;
13343;SDS011;6741;48.964;9.406;2023-09-08T00:53:10;8.60;;;7.10;;
13343;SDS011;6741;48.964;9.406;2023-09-08T00:55:36;7.38;;;6.60;;
13343;SDS011;6741;48.964;9.406;2023-09-08T00:58:06;7.00;;;6.30;;
13343;SDS011;6741;48.964;9.406;2023-09-08T01:00:33;7.27;;;6.57;;
13343;SDS011;6741;48.964;9.406;2023-09-08T01:03:00;7.73;;;6.93;;
13343;SDS011;6741;48.964;9.406;2023-09-08T01:05:28;7.40;;;6.70;;
13343;SDS011;6741;48.964;9.406;2023-09-08T01:07:55;8.73;;;6.50;;
13343;SDS011;6741;48.964;9.406;2023-09-08T01:10:23;7.50;;;6.80;;
13343;SDS011;6741;48.964;9.406;2023-09-08T01:12:50;12.30;;;6.57;;
13343;SDS011;6741;48.964;9.406;2023-09-08T01:15:18;6.70;;;6.00;;
13343;SDS011;6741;48.964;9.406;2023-09-08T01:17:45;7.50;;;6.33;;
13343;SDS011;6741;48.964;9.406;2023-09-08T01:20:13;7.50;;;6.80;;
13343;SDS011;6741;48.964;9.406;2023-09-08T01:22:57;8.80;;;6.53;;
13343;SDS011;6741;48.964;9.406;2023-09-08T01:25:40;7.20;;;6.50;;
13343;SDS011;6741;48.964;9.406;2023-09-08T01:28:10;6.87;;;6.17;;
13343;SDS011;6741;48.964;9.406;2023-09-08T01:30:38;7.37;;;6.63;;
13343;SDS011;6741;48.964;9.406;2023-09-08T01:33:05;7.33;;;6.63;;
13343;SDS011;6741;48.964;9.406;2023-09-08T01:35:33;7.43;;;6.73;;
13343;SDS011;6741;48.964;9.406;2023-09-08T01:38:01;8.23;;;6.37;;
13343;SDS011;6741;48.964;9.406;2023-09-08T01:40:28;7.87;;;6.43;;
13343;SDS011;6741;48.964;9.406;2023-09-08T01:42:56;6.67;;;6.07;;
13343;SDS011;6741;48.964;9.406;2023-09-08T01:45:23;9.07;;;6.40;;
13343;SDS011;6741;48.964;9.406;2023-09-08T01:47:50;6.30;;;5.70;;
13343;SDS011;6741;48.964;9.406;2023-09-08T01:50:17;10.13;;;7.07;;
13343;SDS011;6741;48.964;9.406;2023-09-08T01:52:46;6.87;;;6.27;;
13343;SDS011;6741;48.964;9.406;2023-09-08T01:55:13;7.40;;;6.70;;
13343;SDS011;6741;48.964;9.406;2023-09-08T01:57:41;8.80;;;6.70;;
13343;SDS011;6741;48.964;9.406;2023-09-08T02:00:10;7.90;;;7.10;;
13343;SDS011;6741;48.964;9.406;2023-09-08T02:02:37;8.03;;;6.67;;
13343;SDS011;6741;48.964;9.406;2023-09-08T02:05:05;8.50;;;7.47;;
13343;SDS011;6741;48.964;9.406;2023-09-08T02:07:32;7.57;;;6.87;;
13343;SDS011;6741;48.964;9.406;2023-09-08T02:09:59;7.63;;;6.83;;
13343;SDS011;6741;48.964;9.406;2023-09-08T02:12:26;8.23;;;7.27;;
13343;SDS011;6741;48.964;9.406;2023-09-08T02:14:53;8.27;;;6.67;;
13343;SDS011;6741;48.964;9.406;2023-09-08T02:17:22;11.23;;;6.90;;
13343;SDS011;6741;48.964;9.406;2023-09-08T02:19:48;8.47;;;7.57;;
13343;SDS011;6741;48.964;9.406;2023-09-08T02:22:16;8.47;;;7.63;;
13343;SDS011;6741;48.964;9.406;2023-09-08T02:24:42;8.57;;;7.77;;
13343;SDS011;6741;48.964;9.406;2023-09-08T02:27:09;8.63;;;7.83;;
13343;SDS011;6741;48.964;9.406;2023-09-08T02:29:36;8.80;;;7.93;;
13343;SDS011;6741;48.964;9.406;2023-09-08T02:32:03;9.03;;;8.13;;
13343;SDS011;6741;48.964;9.406;2023-09-08T02:34:34;10.83;;;8.57;;
13343;SDS011;6741;48.964;9.406;2023-09-08T02:37:03;8.60;;;7.63;;
13343;SDS011;6741;48.964;9.406;2023-09-08T02:39:31;8.57;;;7.70;;
13343;SDS011;6741;48.964;9.406;2023-09-08T02:41:59;7.93;;;7.23;;
13343;SDS011;6741;48.964;9.406;2023-09-08T02:44:26;9.33;;;8.43;;
13343;SDS011;6741;48.964;9.406;2023-09-08T02:46:52;9.60;;;8.00;;
13343;SDS011;6741;48.964;9.406;2023-09-08T02:49:19;8.93;;;7.87;;
13343;SDS011;6741;48.964;9.406;2023-09-08T02:51:47;9.40;;;8.53;;
13343;SDS011;6741;48.964;9.406;2023-09-08T02:54:13;9.27;;;8.27;;
13343;SDS011;6741;48.964;9.406;2023-09-08T02:56:40;10.43;;;9.33;;
13343;SDS011;6741;48.964;9.406;2023-09-08T02:59:07;9.60;;;8.60;;
13343;SDS011;6741;48.964;9.406;2023-09-08T03:01:34;11.10;;;8.67;;
13343;SDS011;6741;48.964;9.406;2023-09-08T03:04:01;10.80;;;8.93;;
13343;SDS011;6741;48.964;9.406;2023-09-08T03:06:27;9.13;;;8.20;;
13343;SDS011;6741;48.964;9.406;2023-09-08T03:08:57;9.10;;;7.57;;
13343;SDS011;6741;48.964;9.406;2023-09-08T03:11:25;8.63;;;7.87;;
13343;SDS011;6741;48.964;9.406;2023-09-08T03:13:52;8.43;;;7.67;;
13343;SDS011;6741;48.964;9.406;2023-09-08T03:16:18;9.10;;;8.20;;
13343;SDS011;6741;48.964;9.406;2023-09-08T03:18:45;8.87;;;7.37;;
13343;SDS011;6741;48.964;9.406;2023-09-08T03:21:13;8.87;;;7.93;;
13343;SDS011;6741;48.964;9.406;2023-09-08T03:23:41;8.67;;;7.83;;
13343;SDS011;6741;48.964;9.406;2023-09-08T03:26:10;9.17;;;8.10;;
13343;SDS011;6741;48.964;9.406;2023-09-08T03:28:37;9.40;;;8.43;;
13343;SDS011;6741;48.964;9.406;2023-09-08T03:31:05;11.27;;;8.50;;
13343;SDS011;6741;48.964;9.406;2023-09-08T03:33:31;10.13;;;8.33;;
13343;SDS011;6741;48.964;9.406;2023-09-08T03:35:58;9.63;;;8.63;;
13343;SDS011;6741;48.964;9.406;2023-09-08T03:38:26;9.73;;;8.63;;
13343;SDS011;6741;48.964;9.406;2023-09-08T03:40:53;8.97;;;8.17;;
13343;SDS011;6741;48.964;9.406;2023-09-08T03:43:21;8.60;;;7.80;;
13343;SDS011;6741;48.964;9.406;2023-09-08T03:45:48;7.77;;;6.97;;
13343;SDS011;6741;48.964;9.406;2023-09-08T03:48:15;7.80;;;6.70;;
13343;SDS011;6741;48.964;9.406;2023-09-08T03:50:41;7.47;;;6.53;;
13343;SDS011;6741;48.964;9.406;2023-09-08T03:53:10;8.70;;;6.47;;
13343;SDS011;6741;48.964;9.406;2023-09-08T03:55:37;6.40;;;5.80;;
13343;SDS011;6741;48.964;9.406;2023-09-08T03:58:04;8.43;;;7.17;;
13343;SDS011;6741;48.964;9.406;2023-09-08T04:00:32;7.07;;;6.43;;
13343;SDS011;6741;48.964;9.406;2023-09-08T04:02:59;8.53;;;6.40;;
13343;SDS011;6741;48.964;9.406;2023-09-08T04:05:26;8.30;;;7.50;;
13343;SDS011;6741;48.964;9.406;2023-09-08T04:07:53;9.57;;;7.67;;
13343;SDS011;6741;48.964;9.406;2023-09-08T04:10:20;7.93;;;7.03;;
13343;SDS011;6741;48.964;9.406;2023-09-08T04:12:46;8.83;;;8.03;;
13343;SDS011;6741;48.964;9.406;2023-09-08T04:15:13;11.80;;;9.23;;
13343;SDS011;6741;48.964;9.406;2023-09-08T04:17:41;10.43;;;9.43;;
13343;SDS011;6741;48.964;9.406;2023-09-08T04:20:08;11.33;;;9.23;;
13343;SDS011;6741;48.964;9.406;2023-09-08T04:22:36;10.30;;;9.30;;
13343;SDS011;6741;48.964;9.406;2023-09-08T04:25:03;10.57;;;9.53;;
13343;SDS011;6741;48.964;9.406;2023-09-08T04:27:31;10.83;;;9.73;;
13343;SDS011;6741;48.964;9.406;2023-09-08T04:30:00;14.97;;;9.30;;
13343;SDS011;6741;48.964;9.406;2023-09-08T04:32:27;11.33;;;10.13;;
13343;SDS011;6741;48.964;9.406;2023-09-08T04:34:55;9.80;;;8.73;;
13343;SDS011;6741;48.964;9.406;2023-09-08T04:37:22;11.40;;;10.20;;
13343;SDS011;6741;48.964;9.406;2023-09-08T04:39:48;11.20;;;9.23;;
13343;SDS011;6741;48.964;9.406;2023-09-08T04:42:15;9.17;;;8.00;;
13343;SDS011;6741;48.964;9.406;2023-09-08T04:44:42;9.70;;;8.83;;
13343;SDS011;6741;48.964;9.406;2023-09-08T04:47:09;10.77;;;8.63;;
13343;SDS011;6741;48.964;9.406;2023-09-08T04:49:36;11.13;;;8.73;;
13343;SDS011;6741;48.964;9.406;2023-09-08T04:52:05;11.60;;;9.90;;
13343;SDS011;6741;48.964;9.406;2023-09-08T04:54:32;11.83;;;10.17;;
13343;SDS011;6741;48.964;9.406;2023-09-08T04:56:58;13.70;;;10.00;;
13343;SDS011;6741;48.964;9.406;2023-09-08T04:59:25;12.57;;;9.50;;
13343;SDS011;6741;48.964;9.406;2023-09-08T05:01:52;11.80;;;10.53;;
13343;SDS011;6741;48.964;9.406;2023-09-08T05:04:19;12.40;;;9.47;;
13343;SDS011;6741;48.964;9.406;2023-09-08T05:06:46;11.37;;;10.17;;
13343;SDS011;6741;48.964;9.406;2023-09-08T05:09:14;10.87;;;9.50;;
13343;SDS011;6741;48.964;9.406;2023-09-08T05:11:41;10.33;;;9.23;;
13343;SDS011;6741;48.964;9.406;2023-09-08T05:14:08;10.93;;;9.83;;
13343;SDS011;6741;48.964;9.406;2023-09-08T05:16:35;11.80;;;10.03;;
13343;SDS011;6741;48.964;9.406;2023-09-08T05:19:04;13.50;;;10.33;;
13343;SDS011;6741;48.964;9.406;2023-09-08T05:21:31;10.87;;;9.77;;
13343;SDS011;6741;48.964;9.406;2023-09-08T05:24:00;10.03;;;9.03;;
13343;SDS011;6741;48.964;9.406;2023-09-08T05:26:28;9.93;;;9.03;;
13343;SDS011;6741;48.964;9.406;2023-09-08T05:28:55;9.97;;;8.97;;
13343;SDS011;6741;48.964;9.406;2023-09-08T05:31:22;10.30;;;9.30;;
13343;SDS011;6741;48.964;9.406;2023-09-08T05:33:49;10.57;;;9.57;;
13343;SDS011;6741;48.964;9.406;2023-09-08T05:36:16;10.63;;;9.57;;
13343;SDS011;6741;48.964;9.406;2023-09-08T05:38:42;11.37;;;10.27;;
13343;SDS011;6741;48.964;9.406;2023-09-08T05:41:09;11.33;;;10.20;;
13343;SDS011;6741;48.964;9.406;2023-09-08T05:43:38;11.03;;;9.93;;
13343;SDS011;6741;48.964;9.406;2023-09-08T05:46:04;10.53;;;9.43;;
13343;SDS011;6741;48.964;9.406;2023-09-08T05:48:31;12.20;;;10.27;;
13343;SDS011;6741;48.964;9.406;2023-09-08T05:50:58;11.70;;;10.50;;
13343;SDS011;6741;48.964;9.406;2023-09-08T05:53:27;11.27;;;10.07;;
13343;SDS011;6741;48.964;9.406;2023-09-08T05:55:54;10.17;;;9.17;;
13343;SDS011;6741;48.964;9.406;2023-09-08T05:58:21;10.77;;;9.73;;
13343;SDS011;6741;48.964;9.406;2023-09-08T06:00:50;11.53;;;9.80;;
13343;SDS011;6741;48.964;9.406;2023-09-08T06:03:17;12.47;;;9.90;;
13343;SDS011;6741;48.964;9.406;2023-09-08T06:05:44;11.33;;;9.37;;
13343;SDS011;6741;48.964;9.406;2023-09-08T06:08:11;11.57;;;9.30;;
13343;SDS011;6741;48.964;9.406;2023-09-08T06:10:37;10.30;;;9.30;;
13343;SDS011;6741;48.964;9.406;2023-09-08T06:13:04;10.33;;;9.33;;
13343;SDS011;6741;48.964;9.406;2023-09-08T06:15:31;10.37;;;9.27;;
13343;SDS011;6741;48.964;9.406;2023-09-08T06:17:59;12.73;;;9.90;;
13343;SDS011;6741;48.964;9.406;2023-09-08T06:20:26;10.37;;;9.30;;
13343;SDS011;6741;48.964;9.406;2023-09-08T06:22:53;12.10;;;10.13;;
13343;SDS011;6741;48.964;9.406;2023-09-08T06:25:19;10.03;;;9.03;;
13343;SDS011;6741;48.964;9.406;2023-09-08T06:27:46;10.17;;;8.90;;
13343;SDS011;6741;48.964;9.406;2023-09-08T06:30:13;10.33;;;9.33;;
13343;SDS011;6741;48.964;9.406;2023-09-08T06:32:41;10.07;;;9.02;;
13343;SDS011;6741;48.964;9.406;2023-09-08T06:35:09;9.95;;;8.95;;
13343;SDS011;6741;48.964;9.406;2023-09-08T06:37:37;11.48;;;9.27;;
13343;SDS011;6741;48.964;9.406;2023-09-08T06:40:05;11.45;;;8.15;;
13343;SDS011;6741;48.964;9.406;2023-09-08T06:42:32;8.98;;;8.18;;
13343;SDS011;6741;48.964;9.406;2023-09-08T06:44:59;11.75;;;8.95;;
13343;SDS011;6741;48.964;9.406;2023-09-08T06:47:26;11.35;;;8.20;;
13343;SDS011;6741;48.964;9.406;2023-09-08T06:49:53;9.52;;;8.15;;
13343;SDS011;6741;48.964;9.406;2023-09-08T06:52:21;9.55;;;7.80;;
13343;SDS011;6741;48.964;9.406;2023-09-08T06:54:48;8.65;;;7.75;;
13343;SDS011;6741;48.964;9.406;2023-09-08T06:57:17;8.88;;;7.97;;
13343;SDS011;6741;48.964;9.406;2023-09-08T06:59:44;8.35;;;7.55;;
13343;SDS011;6741;48.964;9.406;2023-09-08T07:02:11;8.30;;;7.60;;
13343;SDS011;6741;48.964;9.406;2023-09-08T07:04:38;9.07;;;7.50;;
13343;SDS011;6741;48.964;9.406;2023-09-08T07:07:05;8.20;;;7.40;;
13343;SDS011;6741;48.964;9.406;2023-09-08T07:09:34;10.10;;;7.57;;
13343;SDS011;6741;48.964;9.406;2023-09-08T07:12:02;7.45;;;6.75;;
13343;SDS011;6741;48.964;9.406;2023-09-08T07:14:29;7.70;;;6.90;;
13343;SDS011;6741;48.964;9.406;2023-09-08T07:16:56;9.68;;;6.97;;
13343;SDS011;6741;48.964;9.406;2023-09-08T07:19:23;7.65;;;6.95;;
13343;SDS011;6741;48.964;9.406;2023-09-08T07:21:51;11.35;;;6.50;;
13343;SDS011;6741;48.964;9.406;2023-09-08T07:24:18;8.40;;;6.68;;
13343;SDS011;6741;48.964;9.406;2023-09-08T07:26:46;7.32;;;6.57;;
13343;SDS011;6741;48.964;9.406;2023-09-08T07:29:12;7.90;;;6.72;;
13343;SDS011;6741;48.964;9.406;2023-09-08T07:31:40;6.47;;;5.88;;
13343;SDS011;6741;48.964;9.406;2023-09-08T07:34:07;6.13;;;5.63;;
13343;SDS011;6741;48.964;9.406;2023-09-08T07:36:38;7.28;;;6.65;;
13343;SDS011;6741;48.964;9.406;2023-09-08T07:39:05;8.18;;;6.28;;
13343;SDS011;6741;48.964;9.406;2023-09-08T07:41:32;7.30;;;6.60;;
13343;SDS011;6741;48.964;9.406;2023-09-08T07:44:01;7.30;;;6.28;;
13343;SDS011;6741;48.964;9.406;2023-09-08T07:46:28;6.82;;;5.85;;
13343;SDS011;6741;48.964;9.406;2023-09-08T07:48:54;6.43;;;5.88;;
13343;SDS011;6741;48.964;9.406;2023-09-08T07:51:21;6.63;;;6.03;;
13343;SDS011;6741;48.964;9.406;2023-09-08T07:53:48;7.15;;;6.45;;
13343;SDS011;6741;48.964;9.406;2023-09-08T07:56:15;5.85;;;5.35;;
13343;SDS011;6741;48.964;9.406;2023-09-08T07:58:42;6.35;;;5.75;;
13343;SDS011;6741;48.964;9.406;2023-09-08T08:01:10;6.20;;;5.60;;
13343;SDS011;6741;48.964;9.406;2023-09-08T08:03:38;6.93;;;5.78;;
13343;SDS011;6741;48.964;9.406;2023-09-08T08:06:05;6.72;;;6.07;;
13343;SDS011;6741;48.964;9.406;2023-09-08T08:08:33;7.05;;;6.35;;
13343;SDS011;6741;48.964;9.406;2023-09-08T08:11:03;6.38;;;5.82;;
13343;SDS011;6741;48.964;9.406;2023-09-08T08:13:35;6.82;;;6.15;;
13343;SDS011;6741;48.964;9.406;2023-09-08T08:16:02;7.10;;;5.80;;
13343;SDS011;6741;48.964;9.406;2023-09-08T08:18:30;6.43;;;5.80;;
13343;SDS011;6741;48.964;9.406;2023-09-08T08:20:57;6.20;;;5.60;;
13343;SDS011;6741;48.964;9.406;2023-09-08T08:23:25;6.43;;;5.82;;
13343;SDS011;6741;48.964;9.406;2023-09-08T08:25:52;6.07;;;5.57;;
13343;SDS011;6741;48.964;9.406;2023-09-08T08:28:19;6.20;;;5.70;;
13343;SDS011;6741;48.964;9.406;2023-09-08T08:30:46;5.90;;;5.30;;
13343;SDS011;6741;48.964;9.406;2023-09-08T08:33:13;6.25;;;5.75;;
13343;SDS011;6741;48.964;9.406;2023-09-08T08:35:41;6.63;;;6.05;;
13343;SDS011;6741;48.964;9.406;2023-09-08T08:38:14;6.30;;;5.70;;
13343;SDS011;6741;48.964;9.406;2023-09-08T08:40:41;6.28;;;5.78;;
13343;SDS011;6741;48.964;9.406;2023-09-08T08:43:08;5.95;;;5.45;;
13343;SDS011;6741;48.964;9.406;2023-09-08T08:45:37;6.53;;;5.93;;
13343;SDS011;6741;48.964;9.406;2023-09-08T08:48:05;6.28;;;5.68;;
13343;SDS011;6741;48.964;9.406;2023-09-08T08:50:34;6.78;;;6.07;;
13343;SDS011;6741;48.964;9.406;2023-09-08T08:53:03;9.35;;;5.90;;
13343;SDS011;6741;48.964;9.406;2023-09-08T08:55:31;6.82;;;6.13;;
13343;SDS011;6741;48.964;9.406;2023-09-08T08:58:00;7.20;;;6.50;;
13343;SDS011;6741;48.964;9.406;2023-09-08T09:00:29;6.40;;;5.80;;
13343;SDS011;6741;48.964;9.406;2023-09-08T09:02:56;6.32;;;5.65;;
13343;SDS011;6741;48.964;9.406;2023-09-08T09:05:25;7.60;;;5.57;;
13343;SDS011;6741;48.964;9.406;2023-09-08T09:07:53;6.75;;;6.15;;
13343;SDS011;6741;48.964;9.406;2023-09-08T09:10:23;6.25;;;5.75;;
13343;SDS011;6741;48.964;9.406;2023-09-08T09:12:50;6.95;;;6.25;;
13343;SDS011;6741;48.964;9.406;2023-09-08T09:15:20;6.93;;;5.50;;
13343;SDS011;6741;48.964;9.406;2023-09-08T09:18:04;6.50;;;5.80;;
13343;SDS011;6741;48.964;9.406;2023-09-08T09:20:32;6.50;;;5.90;;
13343;SDS011;6741;48.964;9.406;2023-09-08T09:23:00;6.15;;;5.55;;
13343;SDS011;6741;48.964;9.406;2023-09-08T09:25:28;6.13;;;5.45;;
13343;SDS011;6741;48.964;9.406;2023-09-08T09:27:57;7.38;;;6.65;;
13343;SDS011;6741;48.964;9.406;2023-09-08T09:30:25;7.50;;;6.38;;
13343;SDS011;6741;48.964;9.406;2023-09-08T09:32:59;6.22;;;5.63;;
13343;SDS011;6741;48.964;9.406;2023-09-08T09:35:39;6.53;;;5.93;;
13343;SDS011;6741;48.964;9.406;2023-09-08T09:38:07;7.55;;;5.32;;
13343;SDS011;6741;48.964;9.406;2023-09-08T09:40:36;6.60;;;6.00;;
13343;SDS011;6741;48.964;9.406;2023-09-08T09:43:04;7.45;;;6.05;;
13343;SDS011;6741;48.964;9.406;2023-09-08T09:45:32;5.90;;;5.35;;
13343;SDS011;6741;48.964;9.406;2023-09-08T09:47:59;5.70;;;5.20;;
13343;SDS011;6741;48.964;9.406;2023-09-08T09:50:29;6.47;;;5.88;;
13343;SDS011;6741;48.964;9.406;2023-09-08T09:52:58;7.28;;;5.35;;
13343;SDS011;6741;48.964;9.406;2023-09-08T09:55:26;6.20;;;5.60;;
13343;SDS011;6741;48.964;9.406;2023-09-08T09:57:55;5.93;;;5.43;;
13343;SDS011;6741;48.964;9.406;2023-09-08T10:00:25;6.00;;;5.40;;
13343;SDS011;6741;48.964;9.406;2023-09-08T10:02:53;5.97;;;5.38;;
13343;SDS011;6741;48.964;9.406;2023-09-08T10:05:20;5.60;;;5.15;;
13343;SDS011;6741;48.964;9.406;2023-09-08T10:07:47;5.63;;;5.13;;
13343;SDS011;6741;48.964;9.406;2023-09-08T10:10:15;5.65;;;5.15;;
13343;SDS011;6741;48.964;9.406;2023-09-08T10:12:43;5.63;;;5.10;;
13343;SDS011;6741;48.964;9.406;2023-09-08T10:15:12;6.20;;;5.60;;
13343;SDS011;6741;48.964;9.406;2023-09-08T10:17:43;6.03;;;4.80;;
13343;SDS011;6741;48.964;9.406;2023-09-08T10:20:11;5.45;;;4.95;;
13343;SDS011;6741;48.964;9.406;2023-09-08T10:22:41;5.03;;;4.63;;
13343;SDS011;6741;48.964;9.406;2023-09-08T10:25:09;5.57;;;4.93;;
13343;SDS011;6741;48.964;9.406;2023-09-08T10:27:40;5.50;;;4.90;;
13343;SDS011;6741;48.964;9.406;2023-09-08T10:30:07;6.85;;;5.88;;
13343;SDS011;6741;48.964;9.406;2023-09-08T10:32:37;5.78;;;5.28;;
13343;SDS011;6741;48.964;9.406;2023-09-08T10:35:06;5.80;;;5.30;;
13343;SDS011;6741;48.964;9.406;2023-09-08T10:37:34;5.28;;;4.70;;
13343;SDS011;6741;48.964;9.406;2023-09-08T10:42:47;5.32;;;4.93;;
13343;SDS011;6741;48.964;9.406;2023-09-08T10:45:15;5.10;;;4.60;;
13343;SDS011;6741;48.964;9.406;2023-09-08T10:47:57;5.45;;;4.97;;
13343;SDS011;6741;48.964;9.406;2023-09-08T10:50:29;6.05;;;5.53;;
13343;SDS011;6741;48.964;9.406;2023-09-08T10:53:05;5.05;;;4.65;;
13343;SDS011;6741;48.964;9.406;2023-09-08T10:55:36;5.38;;;4.88;;
13343;SDS011;6741;48.964;9.406;2023-09-08T10:58:06;5.47;;;4.65;;
13343;SDS011;6741;48.964;9.406;2023-09-08T11:00:44;5.45;;;5.05;;
13343;SDS011;6741;48.964;9.406;2023-09-08T11:03:14;5.50;;;5.00;;
13343;SDS011;6741;48.964;9.406;2023-09-08T11:05:53;5.13;;;4.72;;
13343;SDS011;6741;48.964;9.406;2023-09-08T11:08:21;4.80;;;4.50;;
13343;SDS011;6741;48.964;9.406;2023-09-08T11:10:48;5.25;;;4.75;;
13343;SDS011;6741;48.964;9.406;2023-09-08T11:13:16;7.47;;;4.97;;
13343;SDS011;6741;48.964;9.406;2023-09-08T11:15:43;5.38;;;4.75;;
13343;SDS011;6741;48.964;9.406;2023-09-08T11:18:09;5.03;;;4.57;;
13343;SDS011;6741;48.964;9.406;2023-09-08T11:20:38;4.70;;;4.40;;
13343;SDS011;6741;48.964;9.406;2023-09-08T11:23:05;5.47;;;4.60;;
13343;SDS011;6741;48.964;9.406;2023-09-08T11:25:32;5.22;;;4.75;;
13343;SDS011;6741;48.964;9.406;2023-09-08T11:28:00;6.50;;;4.75;;
13343;SDS011;6741;48.964;9.406;2023-09-08T11:30:27;5.05;;;4.65;;
13343;SDS011;6741;48.964;9.406;2023-09-08T11:32:54;4.88;;;4.50;;
13343;SDS011;6741;48.964;9.406;2023-09-08T11:35:26;4.70;;;4.25;;
13343;SDS011;6741;48.964;9.406;2023-09-08T11:37:58;5.28;;;4.78;;
13343;SDS011;6741;48.964;9.406;2023-09-08T11:40:26;5.13;;;4.72;;
13343;SDS011;6741;48.964;9.406;2023-09-08T11:42:53;4.95;;;4.55;;
13343;SDS011;6741;48.964;9.406;2023-09-08T11:45:19;5.00;;;4.60;;
13343;SDS011;6741;48.964;9.406;2023-09-08T11:47:48;5.13;;;4.63;;
13343;SDS011;6741;48.964;9.406;2023-09-08T11:50:15;4.88;;;4.47;;
13343;SDS011;6741;48.964;9.406;2023-09-08T11:52:44;4.70;;;4.32;;
13343;SDS011;6741;48.964;9.406;2023-09-08T11:55:13;4.57;;;4.22;;
13343;SDS011;6741;48.964;9.406;2023-09-08T11:57:41;4.80;;;4.40;;
13343;SDS011;6741;48.964;9.406;2023-09-08T12:00:09;5.53;;;4.90;;
13343;SDS011;6741;48.964;9.406;2023-09-08T12:02:41;7.35;;;5.20;;
13343;SDS011;6741;48.964;9.406;2023-09-08T12:05:11;5.20;;;4.70;;
13343;SDS011;6741;48.964;9.406;2023-09-08T12:07:39;5.03;;;4.10;;
13343;SDS011;6741;48.964;9.406;2023-09-08T12:10:09;4.38;;;4.00;;
13343;SDS011;6741;48.964;9.406;2023-09-08T12:12:44;5.05;;;4.55;;
13343;SDS011;6741;48.964;9.406;2023-09-08T12:15:11;5.63;;;4.45;;
13343;SDS011;6741;48.964;9.406;2023-09-08T12:17:53;6.13;;;4.78;;
13343;SDS011;6741;48.964;9.406;2023-09-08T12:20:20;5.05;;;4.60;;
13343;SDS011;6741;48.964;9.406;2023-09-08T12:22:48;4.60;;;4.20;;
13343;SDS011;6741;48.964;9.406;2023-09-08T12:25:16;4.88;;;4.30;;
13343;SDS011;6741;48.964;9.406;2023-09-08T12:27:44;4.88;;;4.45;;
13343;SDS011;6741;48.964;9.406;2023-09-08T12:30:16;4.88;;;4.47;;
13343;SDS011;6741;48.964;9.406;2023-09-08T12:32:45;5.03;;;4.57;;
13343;SDS011;6741;48.964;9.406;2023-09-08T12:35:18;4.38;;;3.97;;
13343;SDS011;6741;48.964;9.406;2023-09-08T12:37:47;4.80;;;4.38;;
13343;SDS011;6741;48.964;9.406;2023-09-08T12:40:17;4.60;;;4.30;;
13343;SDS011;6741;48.964;9.406;2023-09-08T12:42:46;8.10;;;5.40;;
13343;SDS011;6741;48.964;9.406;2023-09-08T12:45:12;7.82;;;4.40;;
13343;SDS011;6741;48.964;9.406;2023-09-08T12:47:40;5.38;;;4.78;;
13343;SDS011;6741;48.964;9.406;2023-09-08T12:50:06;4.65;;;4.32;;
13343;SDS011;6741;48.964;9.406;2023-09-08T12:52:34;4.65;;;4.25;;
13343;SDS011;6741;48.964;9.406;2023-09-08T12:55:01;4.40;;;4.00;;
13343;SDS011;6741;48.964;9.406;2023-09-08T12:57:28;8.02;;;4.50;;
13343;SDS011;6741;48.964;9.406;2023-09-08T12:59:57;5.05;;;4.38;;
13343;SDS011;6741;48.964;9.406;2023-09-08T13:02:24;5.07;;;4.57;;
13343;SDS011;6741;48.964;9.406;2023-09-08T13:04:51;4.68;;;4.35;;
13343;SDS011;6741;48.964;9.406;2023-09-08T13:07:18;4.45;;;4.15;;
13343;SDS011;6741;48.964;9.406;2023-09-08T13:09:45;4.32;;;4.03;;
13343;SDS011;6741;48.964;9.406;2023-09-08T13:12:12;4.40;;;4.10;;
13343;SDS011;6741;48.964;9.406;2023-09-08T13:14:38;4.22;;;3.92;;
13343;SDS011;6741;48.964;9.406;2023-09-08T13:17:07;4.60;;;4.15;;
13343;SDS011;6741;48.964;9.406;2023-09-08T13:19:35;5.15;;;4.43;;
13343;SDS011;6741;48.964;9.406;2023-09-08T13:22:03;4.72;;;4.32;;
13343;SDS011;6741;48.964;9.406;2023-09-08T13:24:30;5.03;;;4.53;;
13343;SDS011;6741;48.964;9.406;2023-09-08T13:26:57;4.60;;;4.20;;
13343;SDS011;6741;48.964;9.406;2023-09-08T13:29:24;5.28;;;3.97;;
13343;SDS011;6741;48.964;9.406;2023-09-08T13:31:52;4.88;;;4.38;;
13343;SDS011;6741;48.964;9.406;2023-09-08T13:34:20;4.43;;;4.03;;
13343;SDS011;6741;48.964;9.406;2023-09-08T13:36:47;4.82;;;4.35;;
13343;SDS011;6741;48.964;9.406;2023-09-08T13:39:14;4.38;;;4.05;;
13343;SDS011;6741;48.964;9.406;2023-09-08T13:41:47;4.78;;;4.32;;
13343;SDS011;6741;48.964;9.406;2023-09-08T13:44:15;4.80;;;4.20;;
13343;SDS011;6741;48.964;9.406;2023-09-08T13:46:42;4.35;;;3.95;;
13343;SDS011;6741;48.964;9.406;2023-09-08T13:49:09;4.00;;;3.70;;
13343;SDS011;6741;48.964;9.406;2023-09-08T13:51:38;4.20;;;3.90;;
13343;SDS011;6741;48.964;9.406;2023-09-08T13:54:05;4.85;;;4.03;;
13343;SDS011;6741;48.964;9.406;2023-09-08T13:56:32;4.22;;;3.92;;
13343;SDS011;6741;48.964;9.406;2023-09-08T13:58:58;4.32;;;4.03;;
13343;SDS011;6741;48.964;9.406;2023-09-08T14:01:26;4.88;;;4.47;;
13343;SDS011;6741;48.964;9.406;2023-09-08T14:03:54;4.25;;;3.95;;
13343;SDS011;6741;48.964;9.406;2023-09-08T14:06:21;4.50;;;4.10;;
13343;SDS011;6741;48.964;9.406;2023-09-08T14:08:50;4.30;;;4.00;;
13343;SDS011;6741;48.964;9.406;2023-09-08T14:11:17;4.90;;;4.30;;
13343;SDS011;6741;48.964;9.406;2023-09-08T14:13:44;4.30;;;3.90;;
13343;SDS011;6741;48.964;9.406;2023-09-08T14:16:10;4.55;;;3.97;;
13343;SDS011;6741;48.964;9.406;2023-09-08T14:18:37;4.78;;;4.28;;
13343;SDS011;6741;48.964;9.406;2023-09-08T14:21:04;4.60;;;4.07;;
13343;SDS011;6741;48.964;9.406;2023-09-08T14:23:31;4.47;;;4.07;;
13343;SDS011;6741;48.964;9.406;2023-09-08T14:26:00;5.05;;;4.25;;
13343;SDS011;6741;48.964;9.406;2023-09-08T14:28:27;4.70;;;4.40;;
13343;SDS011;6741;48.964;9.406;2023-09-08T14:30:57;4.50;;;4.10;;
13343;SDS011;6741;48.964;9.406;2023-09-08T14:33:24;4.65;;;4.35;;
13343;SDS011;6741;48.964;9.406;2023-09-08T14:35:50;5.00;;;4.60;;
13343;SDS011;6741;48.964;9.406;2023-09-08T14:38:19;4.10;;;3.80;;
13343;SDS011;6741;48.964;9.406;2023-09-08T14:40:53;4.43;;;4.03;;
13343;SDS011;6741;48.964;9.406;2023-09-08T14:43:22;4.72;;;4.32;;
13343;SDS011;6741;48.964;9.406;2023-09-08T14:45:49;4.85;;;4.53;;
13343;SDS011;6741;48.964;9.406;2023-09-08T14:48:16;5.00;;;4.47;;
13343;SDS011;6741;48.964;9.406;2023-09-08T14:50:43;4.03;;;3.72;;
13343;SDS011;6741;48.964;9.406;2023-09-08T14:53:10;4.85;;;4.20;;
13343;SDS011;6741;48.964;9.406;2023-09-08T14:55:37;4.78;;;4.38;;
13343;SDS011;6741;48.964;9.406;2023-09-08T14:58:04;4.63;;;4.10;;
13343;SDS011;6741;48.964;9.406;2023-09-08T15:00:32;4.30;;;4.00;;
13343;SDS011;6741;48.964;9.406;2023-09-08T15:03:00;4.55;;;4.25;;
13343;SDS011;6741;48.964;9.406;2023-09-08T15:05:29;4.65;;;4.20;;